Time;durP1;ratioP1;P1;durP2;ratioP2;P2;SDS_P1;SDS_P2;PMS_P1;PMS_P2;Temp;Humidity;BMP_temperature;BMP_pressure;BME280_temperature;BME280_humidity;BME280_pressure;Samples;Min_cycle;Max_cycle;Signal;HPM_P1;HPM_P2
2021/05/07 00:01:28;;;;;;;33.38;20.98;;;7.70;84.50;;;;;;5053539;28;20086;-76
2021/05/07 00:03:54;;;;;;;33.00;21.45;;;7.60;84.50;;;;;;5053929;28;20853;-76
2021/05/07 00:06:19;;;;;;;32.80;18.58;;;7.60;84.40;;;;;;5052302;28;20141;-76
2021/05/07 00:08:45;;;;;;;30.60;17.90;;;7.60;84.60;;;;;;5049900;28;20017;-77
2021/05/07 00:11:14;;;;;;;33.38;18.48;;;7.60;84.50;;;;;;5036912;28;20460;-76
2021/05/07 00:13:41;;;;;;;34.25;19.38;;;7.70;84.30;;;;;;5053184;28;20031;-76
2021/05/07 00:16:06;;;;;;;33.63;19.90;;;7.70;84.20;;;;;;5050795;28;20036;-76
2021/05/07 00:18:33;;;;;;;35.03;19.70;;;7.70;83.90;;;;;;5050583;28;20033;-76
2021/05/07 00:21:00;;;;;;;37.95;20.85;;;7.70;83.80;;;;;;5054861;28;20033;-77
2021/05/07 00:23:26;;;;;;;29.40;19.27;;;7.70;83.80;;;;;;5043751;28;20491;-78
2021/05/07 00:25:52;;;;;;;39.30;24.35;;;7.60;83.80;;;;;;5046396;28;20029;-77
2021/05/07 00:28:20;;;;;;;40.25;22.38;;;7.60;84.00;;;;;;5046692;28;20041;-77
2021/05/07 00:30:46;;;;;;;40.58;21.88;;;7.60;84.20;;;;;;5053741;28;20187;-77
2021/05/07 00:33:12;;;;;;;36.28;21.63;;;7.60;84.10;;;;;;5052853;28;20044;-77
2021/05/07 00:35:38;;;;;;;37.70;21.10;;;7.60;84.10;;;;;;5053589;28;20055;-78
2021/05/07 00:38:04;;;;;;;39.45;21.65;;;7.60;83.80;;;;;;5052046;28;20033;-79
2021/05/07 00:40:31;;;;;;;43.63;21.48;;;7.60;84.20;;;;;;5049751;28;20029;-78
2021/05/07 00:42:57;;;;;;;38.92;22.88;;;7.60;83.60;;;;;;5036927;28;20055;-77
2021/05/07 00:45:23;;;;;;;43.35;21.60;;;7.50;83.70;;;;;;5047096;28;20456;-77
2021/05/07 00:48:18;;;;;;;39.08;21.77;;;7.50;83.90;;;;;;5043927;28;20357;-76
2021/05/07 00:50:47;;;;;;;43.53;21.83;;;7.50;84.10;;;;;;5036180;28;20147;-76
2021/05/07 00:53:14;;;;;;;41.70;20.80;;;7.50;84.10;;;;;;5053056;28;20029;-76
2021/05/07 00:55:40;;;;;;;42.53;22.90;;;7.60;84.50;;;;;;5048795;28;20036;-77
2021/05/07 00:58:06;;;;;;;40.35;20.85;;;7.60;83.70;;;;;;5049096;28;20029;-76
2021/05/07 01:00:32;;;;;;;43.90;23.13;;;7.60;83.60;;;;;;5055298;28;20463;-77
2021/05/07 01:03:00;;;;;;;32.47;20.05;;;7.50;83.60;;;;;;5053497;28;20376;-79
2021/05/07 01:05:26;;;;;;;37.42;19.75;;;7.50;83.60;;;;;;5054950;28;20044;-80
2021/05/07 01:07:52;;;;;;;35.42;19.63;;;7.50;83.60;;;;;;5056529;28;20049;-80
2021/05/07 01:10:19;;;;;;;32.17;18.48;;;7.50;83.60;;;;;;5056640;28;20032;-79
2021/05/07 01:12:45;;;;;;;41.47;20.35;;;7.40;83.70;;;;;;5059976;28;20025;-81
2021/05/07 01:15:22;;;;;;;37.22;18.98;;;7.40;83.70;;;;;;5070447;28;20147;-80
2021/05/07 01:17:50;;;;;;;35.80;19.27;;;7.40;83.80;;;;;;5052793;28;20450;-80
2021/05/07 01:20:21;;;;;;;32.65;19.27;;;7.30;83.80;;;;;;5049201;28;20024;-80
2021/05/07 01:22:52;;;;;;;29.48;18.27;;;7.20;83.70;;;;;;5053229;28;20040;-80
2021/05/07 01:25:21;;;;;;;34.88;18.92;;;7.10;83.80;;;;;;5053762;28;20027;-80
2021/05/07 01:27:49;;;;;;;38.70;20.92;;;7.00;83.90;;;;;;5043365;28;20044;-80
2021/05/07 01:30:19;;;;;;;37.15;20.10;;;6.90;83.70;;;;;;5053491;28;20386;-80
2021/05/07 01:32:49;;;;;;;35.42;20.48;;;6.80;83.90;;;;;;5051219;28;20697;-79
2021/05/07 01:35:20;;;;;;;33.15;19.83;;;6.70;84.10;;;;;;5049313;28;20029;-79
2021/05/07 01:37:49;;;;;;;36.08;19.55;;;6.70;84.30;;;;;;5048270;28;20075;-80
2021/05/07 01:40:17;;;;;;;34.15;20.65;;;6.60;84.40;;;;;;5051045;28;20025;-79
2021/05/07 01:42:43;;;;;;;36.03;22.48;;;6.50;84.60;;;;;;5052119;28;20025;-80
2021/05/07 01:45:10;;;;;;;36.70;20.02;;;6.50;84.80;;;;;;5054636;28;20139;-79
2021/05/07 01:47:36;;;;;;;38.28;20.30;;;6.40;84.70;;;;;;5051058;28;20037;-79
2021/05/07 01:50:05;;;;;;;39.45;21.23;;;6.30;85.20;;;;;;5055320;28;20064;-80
2021/05/07 01:52:31;;;;;;;39.92;21.35;;;6.20;85.30;;;;;;5049567;28;20025;-80
2021/05/07 01:54:57;;;;;;;37.97;21.45;;;6.20;85.30;;;;;;5056549;28;20025;-79
2021/05/07 01:57:28;;;;;;;37.22;20.90;;;6.20;85.60;;;;;;5054028;28;20045;-80
2021/05/07 01:59:54;;;;;;;40.17;21.65;;;6.10;86.50;;;;;;5048396;28;20055;-79
2021/05/07 02:02:20;;;;;;;45.15;23.85;;;6.00;86.50;;;;;;5053610;28;20021;-80
2021/05/07 02:04:45;;;;;;;40.65;22.55;;;6.10;87.10;;;;;;5054309;28;20138;-79
2021/05/07 02:07:11;;;;;;;38.05;22.38;;;6.10;87.30;;;;;;5045168;28;20050;-79
2021/05/07 02:09:37;;;;;;;36.75;19.75;;;6.10;87.00;;;;;;5054938;28;20107;-79
2021/05/07 02:12:02;;;;;;;38.25;19.42;;;6.10;87.10;;;;;;5053364;28;20449;-80
2021/05/07 02:14:28;;;;;;;31.42;18.50;;;6.20;87.60;;;;;;5054086;28;20437;-80
2021/05/07 02:16:54;;;;;;;32.80;19.63;;;6.30;87.70;;;;;;5044407;28;20408;-80
2021/05/07 02:19:19;;;;;;;30.13;18.45;;;6.40;87.40;;;;;;5053363;28;20021;-79
2021/05/07 02:21:45;;;;;;;35.80;20.17;;;6.40;87.00;;;;;;5046265;28;20029;-79
2021/05/07 02:24:13;;;;;;;32.95;19.55;;;6.50;86.90;;;;;;5049850;28;20111;-80
2021/05/07 02:26:39;;;;;;;32.65;19.63;;;6.50;86.80;;;;;;5042250;28;20040;-79
2021/05/07 02:29:04;;;;;;;33.38;20.42;;;6.50;86.90;;;;;;5051978;28;20021;-79
2021/05/07 02:31:30;;;;;;;36.30;19.98;;;6.60;86.80;;;;;;5053549;28;20021;-79
2021/05/07 02:33:56;;;;;;;35.10;19.33;;;6.60;87.20;;;;;;5054829;28;20040;-79
2021/05/07 02:36:21;;;;;;;33.22;17.85;;;6.70;87.50;;;;;;5054055;28;20063;-79
2021/05/07 02:38:47;;;;;;;29.70;17.00;;;6.80;87.50;;;;;;5055766;28;20029;-79
2021/05/07 02:41:13;;;;;;;28.98;16.90;;;6.90;87.30;;;;;;5055766;28;20028;-79
2021/05/07 02:43:38;;;;;;;29.33;17.17;;;6.90;87.10;;;;;;5044749;28;20082;-79
2021/05/07 02:46:04;;;;;;;27.35;16.13;;;7.00;86.90;;;;;;5048474;28;20472;-79
2021/05/07 02:48:30;;;;;;;30.73;15.60;;;7.10;87.30;;;;;;5046328;28;20072;-80
2021/05/07 02:50:55;;;;;;;27.30;15.77;;;7.30;88.20;;;;;;5054006;28;20040;-75
2021/05/07 02:53:21;;;;;;;27.00;15.32;;;7.60;88.60;;;;;;5049958;28;20426;-74
2021/05/07 02:55:47;;;;;;;26.50;16.85;;;7.90;88.50;;;;;;5053168;28;20124;-77
2021/05/07 02:58:13;;;;;;;29.73;17.00;;;8.30;87.90;;;;;;5059822;28;20040;-76
2021/05/07 03:00:38;;;;;;;27.75;17.13;;;8.60;87.00;;;;;;5063696;28;20522;-77
2021/05/07 03:03:04;;;;;;;28.77;16.95;;;8.90;85.90;;;;;;5061157;28;20032;-76
2021/05/07 03:05:30;;;;;;;27.00;16.40;;;9.30;84.80;;;;;;5065868;28;20036;-76
2021/05/07 03:07:55;;;;;;;29.63;16.38;;;9.70;83.70;;;;;;5067660;28;20089;-76
2021/05/07 03:10:21;;;;;;;29.83;17.65;;;10.00;82.60;;;;;;5055032;28;20037;-77
2021/05/07 03:12:47;;;;;;;30.33;17.42;;;10.30;81.40;;;;;;5063459;28;20465;-77
2021/05/07 03:15:13;;;;;;;30.40;17.25;;;10.60;80.40;;;;;;5059677;28;20029;-76
2021/05/07 03:17:39;;;;;;;28.13;17.02;;;10.80;79.40;;;;;;5054297;28;20056;-76
2021/05/07 03:20:06;;;;;;;29.05;17.58;;;11.00;78.70;;;;;;5056006;28;20029;-77
2021/05/07 03:22:32;;;;;;;28.67;16.88;;;11.30;78.00;;;;;;5063933;28;20032;-77
2021/05/07 03:24:57;;;;;;;26.25;16.10;;;11.50;76.90;;;;;;5055122;28;20104;-77
2021/05/07 03:27:23;;;;;;;28.40;16.40;;;11.80;75.90;;;;;;5055009;28;20033;-76
2021/05/07 03:29:49;;;;;;;31.05;17.25;;;12.10;74.70;;;;;;5056556;28;20025;-77
2021/05/07 03:32:15;;;;;;;33.65;17.55;;;12.40;73.60;;;;;;5054613;28;20116;-77
2021/05/07 03:34:40;;;;;;;28.67;17.75;;;12.60;72.60;;;;;;5054840;28;20025;-77
2021/05/07 03:37:06;;;;;;;29.08;17.17;;;12.80;71.80;;;;;;5052939;28;20036;-77
2021/05/07 03:39:32;;;;;;;28.63;17.70;;;13.10;71.00;;;;;;5049092;28;20036;-78
2021/05/07 03:41:57;;;;;;;26.20;16.15;;;13.30;70.00;;;;;;5054195;28;20371;-76
2021/05/07 03:44:23;;;;;;;27.77;17.50;;;13.60;69.20;;;;;;5067015;28;20375;-76
2021/05/07 03:46:49;;;;;;;27.95;17.30;;;13.90;68.10;;;;;;5055166;28;20461;-76
2021/05/07 03:49:14;;;;;;;26.77;17.45;;;14.30;67.10;;;;;;5055882;28;20086;-77
2021/05/07 03:51:40;;;;;;;37.03;18.63;;;14.70;65.90;;;;;;5055067;28;20029;-77
2021/05/07 03:54:06;;;;;;;29.90;19.00;;;15.00;64.30;;;;;;5050382;28;20029;-77
2021/05/07 03:56:31;;;;;;;27.42;18.00;;;15.30;63.80;;;;;;5053735;28;20033;-77
2021/05/07 03:58:57;;;;;;;33.80;21.02;;;15.50;62.60;;;;;;5046803;28;20022;-77
2021/05/07 04:01:26;;;;;;;38.30;21.15;;;15.80;62.00;;;;;;5049270;28;20063;-77
2021/05/07 04:03:52;;;;;;;34.60;21.00;;;16.10;61.20;;;;;;5056607;28;20082;-78
2021/05/07 04:06:18;;;;;;;36.40;20.45;;;16.30;60.60;;;;;;5054600;28;20045;-79
2021/05/07 04:08:48;;;;;;;29.05;17.88;;;16.40;60.20;;;;;;5050793;28;20832;-77
2021/05/07 04:11:29;;;;;;;31.83;18.45;;;16.50;59.90;;;;;;5054664;28;20032;-77
2021/05/07 04:13:55;;;;;;;29.33;19.92;;;16.60;59.40;;;;;;5055009;28;20033;-77
2021/05/07 04:16:21;;;;;;;30.38;20.27;;;16.60;58.40;;;;;;5053353;28;20029;-76
2021/05/07 04:18:46;;;;;;;27.83;18.02;;;16.50;57.50;;;;;;5052615;28;20021;-77
2021/05/07 04:21:12;;;;;;;30.10;18.15;;;16.40;57.30;;;;;;5053098;28;20520;-77
2021/05/07 04:23:38;;;;;;;26.48;16.95;;;16.40;57.20;;;;;;5052978;28;20471;-77
2021/05/07 04:26:03;;;;;;;26.02;15.98;;;16.20;57.10;;;;;;5056100;28;20384;-77
2021/05/07 04:28:29;;;;;;;24.25;15.35;;;16.30;57.30;;;;;;5065787;28;20041;-77
2021/05/07 04:30:55;;;;;;;30.65;14.60;;;16.50;56.90;;;;;;5052973;28;20060;-79
2021/05/07 04:33:21;;;;;;;27.83;16.60;;;16.60;56.80;;;;;;5053340;28;20031;-77
2021/05/07 04:35:47;;;;;;;27.52;14.80;;;16.90;56.50;;;;;;5053874;28;20021;-78
2021/05/07 04:38:13;;;;;;;20.67;13.90;;;17.00;56.20;;;;;;5053550;28;20024;-77
2021/05/07 04:40:38;;;;;;;23.13;13.32;;;17.10;56.00;;;;;;5053224;28;20111;-78
2021/05/07 04:43:04;;;;;;;20.08;12.75;;;17.20;55.30;;;;;;5054285;28;20376;-78
2021/05/07 04:45:31;;;;;;;18.63;13.10;;;17.30;54.70;;;;;;5044517;28;20033;-78
2021/05/07 04:47:58;;;;;;;22.02;12.88;;;17.30;54.10;;;;;;5034128;28;20441;-79
2021/05/07 04:50:24;;;;;;;21.38;11.40;;;17.30;54.30;;;;;;5053131;28;20029;-80
2021/05/07 04:52:50;;;;;;;21.98;11.18;;;17.70;54.80;;;;;;5053766;28;20056;-79
2021/05/07 04:55:16;;;;;;;19.75;10.57;;;18.30;53.80;;;;;;5053068;28;20033;-80
2021/05/07 04:57:42;;;;;;;21.25;11.10;;;18.80;52.90;;;;;;5064178;28;20081;-80
2021/05/07 05:00:09;;;;;;;26.77;10.80;;;19.40;52.20;;;;;;5069666;28;20075;-81
2021/05/07 05:02:35;;;;;;;49.00;17.95;;;19.90;51.10;;;;;;5075387;28;20009;-91
2021/05/07 05:05:02;;;;;;;74.40;20.77;;;20.50;49.80;;;;;;5079243;28;20040;-86
2021/05/07 05:07:28;;;;;;;90.43;27.58;;;20.90;48.30;;;;;;5074185;28;20109;-81
2021/05/07 05:09:53;;;;;;;85.03;24.30;;;21.10;47.50;;;;;;5070843;28;20474;-78
2021/05/07 05:12:19;;;;;;;77.45;25.20;;;21.10;45.80;;;;;;5040804;28;20033;-76
2021/05/07 05:14:45;;;;;;;85.70;27.35;;;21.20;45.30;;;;;;5063819;28;20067;-80
2021/05/07 05:17:10;;;;;;;58.88;20.45;;;21.60;45.00;;;;;;5061846;28;20033;-70
2021/05/07 05:19:36;;;;;;;59.72;19.55;;;21.70;44.40;;;;;;5057288;28;20032;-78
2021/05/07 05:22:02;;;;;;;57.17;20.42;;;21.90;44.40;;;;;;5049240;28;20476;-73
2021/05/07 05:24:27;;;;;;;50.70;18.17;;;22.10;44.30;;;;;;5051885;28;20108;-75
2021/05/07 05:26:53;;;;;;;33.33;12.60;;;22.50;43.70;;;;;;5051563;28;20040;-80
2021/05/07 05:29:19;;;;;;;32.90;12.68;;;22.90;43.70;;;;;;5063154;28;20056;-72
2021/05/07 05:31:45;;;;;;;14.57;7.45;;;23.30;43.30;;;;;;5051533;28;20060;-65
2021/05/07 05:34:10;;;;;;;18.05;8.35;;;23.30;42.20;;;;;;5052869;28;20037;-81
2021/05/07 05:36:36;;;;;;;15.63;7.72;;;23.50;42.20;;;;;;5055062;28;20028;-80
2021/05/07 05:39:02;;;;;;;11.57;6.35;;;23.90;41.70;;;;;;5060426;28;20063;-82
2021/05/07 05:41:28;;;;;;;7.50;5.60;;;24.20;41.40;;;;;;5053851;28;20020;-76
2021/05/07 05:43:54;;;;;;;10.52;6.03;;;24.40;40.90;;;;;;5049478;28;20033;-78
2021/05/07 05:46:19;;;;;;;10.40;4.63;;;24.60;40.70;;;;;;5051713;28;20025;-73
2021/05/07 05:48:45;;;;;;;5.55;3.67;;;24.80;40.00;;;;;;5052243;28;20024;-71
2021/05/07 05:51:11;;;;;;;4.78;3.20;;;25.00;38.70;;;;;;5051664;28;20122;-81
2021/05/07 05:53:37;;;;;;;8.73;3.40;;;25.40;37.90;;;;;;5044110;28;20076;-78
2021/05/07 05:56:04;;;;;;;6.80;3.58;;;25.60;37.60;;;;;;5065785;28;20040;-78
2021/05/07 05:58:31;;;;;;;7.25;3.10;;;25.50;37.20;;;;;;5060405;28;20379;-79
2021/05/07 06:00:57;;;;;;;5.78;3.83;;;25.60;36.10;;;;;;5040228;28;20024;-78
2021/05/07 06:03:23;;;;;;;9.43;3.10;;;25.40;35.90;;;;;;5052638;28;20462;-78
2021/05/07 06:05:49;;;;;;;6.30;2.88;;;25.40;36.00;;;;;;5052915;28;20052;-78
2021/05/07 06:08:14;;;;;;;4.40;2.80;;;25.40;35.50;;;;;;5054811;28;20033;-78
2021/05/07 06:10:40;;;;;;;8.88;3.03;;;25.30;34.40;;;;;;5051288;28;21088;-78
2021/05/07 06:13:06;;;;;;;9.25;5.18;;;25.10;35.20;;;;;;5051731;28;20035;-78
2021/05/07 06:15:32;;;;;;;5.68;2.38;;;25.10;35.50;;;;;;5051973;28;20025;-79
2021/05/07 06:17:57;;;;;;;12.60;2.72;;;25.40;35.50;;;;;;5051649;28;20056;-77
2021/05/07 06:20:23;;;;;;;6.47;2.35;;;25.70;35.60;;;;;;5050629;28;20031;-78
2021/05/07 06:22:49;;;;;;;4.00;2.15;;;25.80;35.00;;;;;;5055649;28;20112;-79
2021/05/07 06:25:25;;;;;;;6.45;2.47;;;25.80;34.40;;;;;;5053708;28;20349;-79
2021/05/07 06:27:52;;;;;;;4.15;2.35;;;25.60;34.50;;;;;;5053185;28;20083;-79
2021/05/07 06:30:18;;;;;;;4.32;2.45;;;25.30;34.50;;;;;;5054110;28;20029;-78
2021/05/07 06:32:44;;;;;;;13.82;3.05;;;24.90;34.00;;;;;;5056885;28;20044;-78
2021/05/07 06:35:10;;;;;;;7.13;2.55;;;24.60;34.80;;;;;;5056699;28;20444;-78
2021/05/07 06:37:37;;;;;;;6.03;2.28;;;24.30;34.90;;;;;;5057173;28;20134;-78
2021/05/07 06:40:05;;;;;;;8.57;1.77;;;24.10;35.50;;;;;;5059739;28;20025;-78
2021/05/07 06:42:34;;;;;;;3.95;1.70;;;23.80;34.70;;;;;;5058047;28;20122;-77
2021/05/07 06:45:00;;;;;;;3.22;1.25;;;23.50;34.00;;;;;;5059588;28;20116;-77
2021/05/07 06:47:26;;;;;;;6.90;1.85;;;23.30;33.80;;;;;;5057296;28;20057;-77
2021/05/07 06:49:51;;;;;;;4.13;1.42;;;23.40;34.70;;;;;;5058628;28;20056;-78
2021/05/07 06:52:17;;;;;;;4.00;1.42;;;23.70;34.10;;;;;;5058816;28;20036;-77
2021/05/07 06:54:43;;;;;;;7.13;2.38;;;24.10;33.90;;;;;;5057112;28;20025;-80
2021/05/07 06:57:08;;;;;;;4.30;2.40;;;24.60;33.60;;;;;;5049708;28;20040;-77
2021/05/07 06:59:34;;;;;;;5.47;1.52;;;25.00;33.00;;;;;;5066746;28;20029;-78
2021/05/07 07:02:00;;;;;;;3.42;1.30;;;25.30;32.50;;;;;;5071020;28;20092;-77
2021/05/07 07:04:27;;;;;;;5.60;1.58;;;25.50;31.40;;;;;;5071442;28;20029;-87
2021/05/07 07:06:53;;;;;;;6.88;1.50;;;25.70;31.10;;;;;;5072161;28;20041;-78
2021/05/07 07:09:19;;;;;;;4.82;1.42;;;25.80;31.10;;;;;;5061741;28;20036;-77
2021/05/07 07:11:45;;;;;;;4.43;1.70;;;25.80;30.70;;;;;;5061292;28;20032;-78
2021/05/07 07:14:11;;;;;;;2.03;1.20;;;26.00;30.20;;;;;;5068992;28;20064;-78
2021/05/07 07:16:36;;;;;;;2.53;1.30;;;25.90;29.70;;;;;;5061617;28;20033;-78
2021/05/07 07:19:03;;;;;;;5.30;1.40;;;25.80;29.50;;;;;;5060839;28;20024;-78
2021/05/07 07:21:28;;;;;;;4.85;1.33;;;25.50;29.40;;;;;;5060415;28;20063;-77
2021/05/07 07:23:54;;;;;;;4.30;1.60;;;25.30;29.80;;;;;;5054445;28;20029;-78
2021/05/07 07:26:20;;;;;;;3.47;1.50;;;25.20;30.00;;;;;;5059441;28;20044;-78
2021/05/07 07:28:48;;;;;;;5.43;1.48;;;25.30;30.00;;;;;;5062203;28;20029;-77
2021/05/07 07:31:14;;;;;;;2.63;1.38;;;25.30;30.00;;;;;;5055219;28;20120;-77
2021/05/07 07:33:40;;;;;;;4.80;1.60;;;25.30;29.80;;;;;;5057664;28;20104;-78
2021/05/07 07:36:06;;;;;;;4.28;1.85;;;25.30;29.30;;;;;;5061210;28;20079;-77
2021/05/07 07:38:32;;;;;;;4.38;1.25;;;25.20;29.50;;;;;;5055715;28;20033;-79
2021/05/07 07:40:58;;;;;;;4.35;1.30;;;25.00;29.20;;;;;;5053519;28;20025;-79
2021/05/07 07:43:23;;;;;;;4.47;1.40;;;24.70;29.20;;;;;;5054123;28;20055;-79
2021/05/07 07:45:50;;;;;;;6.40;1.50;;;24.50;29.50;;;;;;5052137;28;20025;-78
2021/05/07 07:48:18;;;;;;;8.50;1.63;;;24.20;29.50;;;;;;5050010;28;20036;-80
2021/05/07 07:50:44;;;;;;;2.95;1.63;;;24.10;30.00;;;;;;5051030;28;20551;-81
2021/05/07 07:53:11;;;;;;;3.75;1.30;;;24.20;30.00;;;;;;5050358;28;20025;-79
2021/05/07 07:55:37;;;;;;;11.20;9.55;;;24.00;29.70;;;;;;5048346;28;20124;-80
2021/05/07 07:58:03;;;;;;;4.05;1.50;;;23.80;29.70;;;;;;5044473;28;20036;-79
2021/05/07 08:00:29;;;;;;;5.97;1.90;;;23.50;29.90;;;;;;5045689;28;20391;-80
2021/05/07 08:02:55;;;;;;;5.57;2.20;;;23.20;30.50;;;;;;5042508;28;20072;-81
2021/05/07 08:05:21;;;;;;;4.28;2.10;;;23.00;30.30;;;;;;5040416;28;20535;-81
2021/05/07 08:07:48;;;;;;;1.85;1.17;;;22.80;30.00;;;;;;5049380;28;20484;-80
2021/05/07 08:10:15;;;;;;;3.90;1.40;;;22.60;30.10;;;;;;5047732;28;20495;-84
2021/05/07 08:12:42;;;;;;;4.28;2.10;;;22.20;30.70;;;;;;5047662;28;20493;-79
2021/05/07 08:15:09;;;;;;;5.70;2.25;;;22.10;30.90;;;;;;5044172;28;20489;-85
2021/05/07 08:17:35;;;;;;;4.03;1.60;;;22.00;30.90;;;;;;5051078;28;20108;-83
2021/05/07 08:20:02;;;;;;;4.32;1.70;;;22.00;31.10;;;;;;5047826;28;20395;-81
2021/05/07 08:22:27;;;;;;;3.95;1.50;;;22.10;31.50;;;;;;5050704;28;20040;-80
2021/05/07 08:24:53;;;;;;;4.18;1.85;;;22.30;31.20;;;;;;5047291;28;20115;-82
2021/05/07 08:27:20;;;;;;;4.72;1.80;;;22.40;31.90;;;;;;5047480;28;20033;-83
2021/05/07 08:29:46;;;;;;;4.55;1.50;;;22.30;31.10;;;;;;5052207;28;20531;-79
2021/05/07 08:32:12;;;;;;;3.55;1.35;;;22.40;31.50;;;;;;5052495;28;20031;-83
2021/05/07 08:34:41;;;;;;;3.42;1.10;;;22.40;30.20;;;;;;5061539;28;20104;-84
2021/05/07 08:37:09;;;;;;;3.95;1.20;;;22.40;29.80;;;;;;5052437;28;20075;-83
2021/05/07 08:39:35;;;;;;;1.95;1.20;;;22.20;29.80;;;;;;5051997;28;20113;-82
2021/05/07 08:42:01;;;;;;;3.97;2.10;;;22.10;30.00;;;;;;5051969;28;20055;-82
2021/05/07 08:44:26;;;;;;;3.83;1.58;;;21.90;30.90;;;;;;5060681;28;20064;-83
2021/05/07 08:46:55;;;;;;;2.55;1.35;;;21.70;31.30;;;;;;5053919;28;20427;-82
2021/05/07 08:49:23;;;;;;;4.85;1.50;;;21.60;31.40;;;;;;5055450;28;20057;-81
2021/05/07 08:51:48;;;;;;;5.65;1.70;;;21.50;31.80;;;;;;5052083;28;20020;-82
2021/05/07 08:54:14;;;;;;;3.40;1.20;;;21.60;32.50;;;;;;5050792;28;20025;-82
2021/05/07 08:56:40;;;;;;;4.10;1.33;;;21.70;31.80;;;;;;5042833;28;20029;-82
2021/05/07 08:59:06;;;;;;;2.25;1.02;;;21.70;31.60;;;;;;5052829;28;20020;-82
2021/05/07 09:01:47;;;;;;;2.38;1.20;;;21.50;31.50;;;;;;5052800;28;20029;-82
2021/05/07 09:04:18;;;;;;;2.67;1.40;;;21.60;32.80;;;;;;5054665;28;20052;-82
2021/05/07 09:06:52;;;;;;;3.63;1.42;;;21.70;32.40;;;;;;5061848;28;20079;-83
2021/05/07 09:09:26;;;;;;;3.53;1.00;;;21.60;32.40;;;;;;5068238;28;20075;-81
2021/05/07 09:11:53;;;;;;;7.57;1.30;;;21.60;32.20;;;;;;5065101;28;20032;-81
2021/05/07 09:14:19;;;;;;;2.50;1.10;;;21.60;31.40;;;;;;5055230;28;20036;-80
2021/05/07 09:17:00;;;;;;;1.95;1.00;;;21.60;31.40;;;;;;5057771;28;20514;-81
2021/05/07 09:19:30;;;;;;;7.40;1.88;;;21.50;31.40;;;;;;5054842;28;20383;-81
2021/05/07 09:21:57;;;;;;;4.28;1.52;;;21.70;32.20;;;;;;5059318;28;20150;-81
2021/05/07 09:24:49;;;;;;;2.08;1.02;;;22.10;32.20;;;;;;5051880;28;20032;-81
2021/05/07 09:27:22;;;;;;;2.67;1.33;;;22.40;31.30;;;;;;5051352;28;20063;-80
2021/05/07 09:29:48;;;;;;;1.63;0.90;;;22.80;31.10;;;;;;5051617;28;20478;-81
2021/05/07 09:32:14;;;;;;;2.25;0.95;;;23.00;30.10;;;;;;5053482;28;20091;-81
2021/05/07 09:34:40;;;;;;;2.35;1.27;;;23.00;29.80;;;;;;5051510;28;20070;-81
2021/05/07 09:37:22;;;;;;;3.92;1.38;;;22.90;29.90;;;;;;5053296;28;20029;-81
2021/05/07 09:39:48;;;;;;;1.55;1.08;;;23.00;30.00;;;;;;5053079;28;20028;-82
2021/05/07 09:42:26;;;;;;;4.03;1.25;;;23.10;29.70;;;;;;5051657;28;20025;-81
2021/05/07 09:44:51;;;;;;;2.78;1.15;;;23.20;29.60;;;;;;5052558;28;20020;-81
2021/05/07 09:47:18;;;;;;;2.22;1.00;;;23.40;29.70;;;;;;5051455;28;20033;-82
2021/05/07 09:49:43;;;;;;;7.88;1.40;;;23.60;29.30;;;;;;5052533;28;20029;-82
2021/05/07 09:52:09;;;;;;;5.75;1.30;;;23.90;29.70;;;;;;5051762;28;20018;-82
2021/05/07 09:54:38;;;;;;;3.58;1.20;;;24.20;29.70;;;;;;5052788;28;20029;-82
2021/05/07 09:57:05;;;;;;;2.65;1.10;;;24.40;29.80;;;;;;5051326;28;20072;-81
2021/05/07 09:59:31;;;;;;;4.05;1.00;;;24.40;29.30;;;;;;5051433;28;20379;-82
2021/05/07 10:01:57;;;;;;;8.57;1.98;;;24.30;29.00;;;;;;5052763;28;20033;-82
2021/05/07 10:04:22;;;;;;;2.58;1.00;;;24.10;29.10;;;;;;5052964;28;20029;-81
2021/05/07 10:06:48;;;;;;;6.57;1.20;;;23.70;29.00;;;;;;5053868;28;20063;-82
2021/05/07 10:09:24;;;;;;;1.60;1.00;;;23.20;29.30;;;;;;5056833;28;20348;-81
2021/05/07 10:11:52;;;;;;;2.97;1.10;;;22.70;29.50;;;;;;5069235;28;20025;-82
2021/05/07 10:14:20;;;;;;;4.13;1.92;;;22.30;29.80;;;;;;5054987;28;20029;-81
2021/05/07 10:16:46;;;;;;;6.30;1.45;;;22.30;30.70;;;;;;5055106;28;20155;-82
2021/05/07 10:19:13;;;;;;;2.65;1.10;;;22.50;30.60;;;;;;5054943;28;20025;-81
2021/05/07 10:21:41;;;;;;;1.95;1.00;;;22.50;30.60;;;;;;5056168;28;20033;-81
2021/05/07 10:24:09;;;;;;;2.10;1.02;;;22.70;30.90;;;;;;5056136;28;20079;-82
2021/05/07 10:26:54;;;;;;;5.18;1.23;;;22.70;30.70;;;;;;5056009;28;20090;-82
2021/05/07 10:29:29;;;;;;;2.90;1.17;;;22.60;31.50;;;;;;5055123;28;20103;-82
2021/05/07 10:32:00;;;;;;;2.70;1.25;;;22.50;30.70;;;;;;5056153;28;20112;-81
2021/05/07 10:34:27;;;;;;;2.88;1.20;;;22.80;30.80;;;;;;5055944;28;20036;-81
2021/05/07 10:36:55;;;;;;;3.63;1.25;;;23.10;30.80;;;;;;5055953;28;20024;-81
2021/05/07 10:39:26;;;;;;;3.00;1.20;;;23.40;30.90;;;;;;5056216;28;20033;-82
2021/05/07 10:41:53;;;;;;;3.03;1.30;;;23.80;30.80;;;;;;5042164;28;20025;-83
2021/05/07 10:44:21;;;;;;;4.68;1.40;;;23.90;30.40;;;;;;5058418;28;20529;-82
2021/05/07 10:47:07;;;;;;;7.82;2.20;;;23.70;30.30;;;;;;5059651;28;20166;-82
2021/05/07 10:49:37;;;;;;;6.43;1.73;;;23.40;30.50;;;;;;5069528;28;20044;-84
2021/05/07 10:52:08;;;;;;;3.33;1.60;;;23.10;30.50;;;;;;5076018;28;20036;-81
2021/05/07 10:54:35;;;;;;;2.40;1.20;;;22.70;30.90;;;;;;5064158;28;20025;-82
2021/05/07 10:57:00;;;;;;;3.42;1.40;;;22.40;31.10;;;;;;5063140;28;20048;-81
2021/05/07 10:59:26;;;;;;;9.82;1.40;;;22.00;31.60;;;;;;5062664;28;20044;-81
2021/05/07 11:02:00;;;;;;;3.92;1.10;;;21.70;31.90;;;;;;5061594;28;20028;-82
2021/05/07 11:04:27;;;;;;;3.53;0.90;;;21.40;32.20;;;;;;5059282;28;20496;-82
2021/05/07 11:07:03;;;;;;;6.90;1.50;;;21.30;32.40;;;;;;5058032;28;20045;-81
2021/05/07 11:09:29;;;;;;;2.28;0.90;;;21.20;32.60;;;;;;5055741;28;20033;-81
2021/05/07 11:12:05;;;;;;;3.25;1.17;;;21.10;32.60;;;;;;5055083;28;20048;-81
2021/05/07 11:14:43;;;;;;;3.90;1.00;;;21.00;32.70;;;;;;5055567;28;20025;-81
2021/05/07 11:17:19;;;;;;;5.10;1.75;;;20.90;32.90;;;;;;5053632;28;20045;-81
2021/05/07 11:19:46;;;;;;;2.05;1.27;;;20.80;33.10;;;;;;5054635;28;20036;-81
2021/05/07 11:22:13;;;;;;;2.97;1.20;;;20.80;33.20;;;;;;5054137;28;20027;-80
2021/05/07 11:24:43;;;;;;;1.45;1.00;;;20.70;33.30;;;;;;5054010;28;20086;-80
2021/05/07 11:27:28;;;;;;;1.52;0.90;;;20.50;33.50;;;;;;5054826;28;20033;-79
2021/05/07 11:30:06;;;;;;;1.35;1.00;;;20.40;34.40;;;;;;5056917;28;20049;-80
2021/05/07 11:32:32;;;;;;;3.33;1.40;;;20.20;35.00;;;;;;5056641;28;20044;-80
2021/05/07 11:35:04;;;;;;;5.25;1.60;;;20.10;35.00;;;;;;5053798;28;20444;-80
2021/05/07 11:37:30;;;;;;;3.47;1.30;;;20.00;35.60;;;;;;5055344;28;20025;-79
2021/05/07 11:39:56;;;;;;;2.05;1.10;;;19.90;35.80;;;;;;5053645;28;20017;-80
2021/05/07 11:42:33;;;;;;;3.28;1.30;;;19.80;35.80;;;;;;5055322;28;20032;-80
2021/05/07 11:45:00;;;;;;;8.55;1.83;;;19.70;36.20;;;;;;5053633;28;20028;-80
2021/05/07 11:47:30;;;;;;;3.97;1.60;;;19.50;36.50;;;;;;5054040;28;20036;-79
2021/05/07 11:49:56;;;;;;;2.25;1.35;;;19.40;37.20;;;;;;5055437;28;20045;-80
2021/05/07 11:52:33;;;;;;;4.05;1.45;;;19.30;39.40;;;;;;5055257;28;20050;-79
2021/05/07 11:54:59;;;;;;;5.93;1.70;;;19.00;42.40;;;;;;5054960;28;20033;-80
2021/05/07 11:57:24;;;;;;;2.00;1.38;;;18.70;44.00;;;;;;5054966;28;20029;-80
2021/05/07 11:59:53;;;;;;;4.60;1.77;;;18.40;43.20;;;;;;5055031;28;20032;-81
2021/05/07 12:02:23;;;;;;;4.45;2.10;;;18.30;42.60;;;;;;5053298;28;20025;-81
2021/05/07 12:04:49;;;;;;;5.90;1.90;;;18.20;42.40;;;;;;5053166;28;20096;-79
2021/05/07 12:07:30;;;;;;;4.88;1.85;;;18.20;42.40;;;;;;5054128;28;20045;-79
2021/05/07 12:09:57;;;;;;;3.40;1.52;;;18.30;42.20;;;;;;5053397;28;20343;-80
2021/05/07 12:12:26;;;;;;;7.28;2.38;;;18.30;41.90;;;;;;5052779;28;20064;-79
2021/05/07 12:15:13;;;;;;;4.60;2.20;;;18.30;41.90;;;;;;5052746;28;20029;-79
2021/05/07 12:17:51;;;;;;;3.80;1.40;;;18.30;41.90;;;;;;5040231;28;20037;-79
2021/05/07 12:20:21;;;;;;;3.83;1.38;;;18.30;41.80;;;;;;5052484;28;20078;-79
2021/05/07 12:22:53;;;;;;;4.70;2.20;;;18.30;41.70;;;;;;5053783;28;20027;-79
2021/05/07 12:25:20;;;;;;;8.40;2.35;;;18.40;42.00;;;;;;5053731;28;20025;-79
2021/05/07 12:27:48;;;;;;;4.85;1.98;;;18.40;41.90;;;;;;5051415;28;20040;-79
2021/05/07 12:30:31;;;;;;;5.38;2.10;;;18.50;41.60;;;;;;5053879;28;20096;-80
2021/05/07 12:32:58;;;;;;;7.65;2.35;;;18.70;41.70;;;;;;5066458;28;20386;-78
2021/05/07 12:35:41;;;;;;;8.00;2.80;;;18.80;41.80;;;;;;5052555;28;20052;-79
2021/05/07 12:38:20;;;;;;;5.88;1.58;;;18.90;41.70;;;;;;5052407;28;20471;-79
2021/05/07 12:40:46;;;;;;;6.88;1.55;;;19.10;41.40;;;;;;5052536;28;20036;-79
2021/05/07 12:43:12;;;;;;;3.13;1.60;;;19.20;40.90;;;;;;5053783;28;20021;-79